Station Historical Data
Daily Summary for January 17, 2017 Units:  Both    English   Metric
« Previous Day
Next Day »
Daily Weekly Monthly Yearly Custom
  High: Low: Average:
Temperature: 45.6 °F /  7.6 °C 32.4 °F /  0.2 °C 39.1 °F /  3.9 °C
Dew Point: 44.3 °F /  6.8 °C 27.4 °F /  -2.6 °C 36.9 °F /  2.7 °C
Humidity: 96% 81% 92%
Wind Speed: 13.0mph /  20.9km/h - 3.2mph /  5.1km/h
Wind Gust: 20.0mph /  32.2km/h - -
Wind- - SE
Pressure: 30.25 in /  1024.3 hPa 29.77 in /  1008 hPa -
Precipitation: 0.00 in /  0 mm    
Historical Graphs
 
 
Tabular Data for January 17, 2017
Time Temperature Dew Point Pressure Wind Wind Speed Wind Gust Humidity Rainfall Rate (Hourly)
00:04 33.0 °F /  0.6 °C 28.1 °F /  -2.2 °C 30.25in /  1024.3hPa Calm     82% 0.00in /  0mm
00:09 32.8 °F /  0.4 °C 27.9 °F /  -2.3 °C 30.24in /  1023.9hPa Calm     82% 0.00in /  0mm
00:14 32.7 °F /  0.4 °C 27.8 °F /  -2.3 °C 30.23in /  1023.6hPa East 2.0mph /  3.2km/h 2.0mph /  3.2km/h 82% 0.00in /  0mm
00:19 32.7 °F /  0.4 °C 28.1 °F /  -2.2 °C 30.23in /  1023.6hPa East 1.0mph /  1.6km/h 3.0mph /  4.8km/h 83% 0.01in /  0.25mm
00:24 32.7 °F /  0.4 °C 27.8 °F /  -2.3 °C 30.23in /  1023.6hPa ENE 2.0mph /  3.2km/h 4.0mph /  6.4km/h 82% 0.01in /  0.25mm
00:29 32.6 °F /  0.3 °C 28.0 °F /  -2.2 °C 30.23in /  1023.6hPa NE 2.0mph /  3.2km/h 4.0mph /  6.4km/h 83% 0.01in /  0.25mm
00:39 32.5 °F /  0.3 °C 27.9 °F /  -2.3 °C 30.23in /  1023.6hPa NE 1.0mph /  1.6km/h 3.0mph /  4.8km/h 83% 0.01in /  0.25mm
00:44 32.4 °F /  0.2 °C 27.8 °F /  -2.3 °C 30.22in /  1023.2hPa NE 1.0mph /  1.6km/h 3.0mph /  4.8km/h 83% 0.01in /  0.25mm
00:49 32.4 °F /  0.2 °C 27.8 °F /  -2.3 °C 30.22in /  1023.2hPa NE 2.0mph /  3.2km/h 3.0mph /  4.8km/h 83% 0.01in /  0.25mm
00:54 32.5 °F /  0.3 °C 27.6 °F /  -2.4 °C 30.22in /  1023.2hPa NE 3.0mph /  4.8km/h 4.0mph /  6.4km/h 82% 0.01in /  0.25mm
00:59 32.6 °F /  0.3 °C 27.7 °F /  -2.4 °C 30.22in /  1023.2hPa Calm   4.0mph /  6.4km/h 82% 0.01in /  0.25mm
01:04 32.6 °F /  0.3 °C 27.4 °F /  -2.6 °C 30.22in /  1023.2hPa NE 2.0mph /  3.2km/h 3.0mph /  4.8km/h 81% 0.01in /  0.25mm
01:09 32.7 °F /  0.4 °C 27.8 °F /  -2.3 °C 30.22in /  1023.2hPa NE 2.0mph /  3.2km/h 3.0mph /  4.8km/h 82% 0.01in /  0.25mm
01:14 32.7 °F /  0.4 °C 28.1 °F /  -2.2 °C 30.22in /  1023.2hPa Calm   2.0mph /  3.2km/h 83% 0.01in /  0.25mm
01:19 32.7 °F /  0.4 °C 27.8 °F /  -2.3 °C 30.21in /  1022.9hPa NE 2.0mph /  3.2km/h 2.0mph /  3.2km/h 82% 0.00in /  0mm
01:24 32.7 °F /  0.4 °C 27.8 °F /  -2.3 °C 30.20in /  1022.6hPa NE 1.0mph /  1.6km/h 3.0mph /  4.8km/h 82% 0.00in /  0mm
01:29 32.7 °F /  0.4 °C 27.8 °F /  -2.3 °C 30.20in /  1022.6hPa NE 2.0mph /  3.2km/h 3.0mph /  4.8km/h 82% 0.00in /  0mm
01:34 32.7 °F /  0.4 °C 27.8 °F /  -2.3 °C 30.20in /  1022.6hPa NE 2.0mph /  3.2km/h 4.0mph /  6.4km/h 82% 0.00in /  0mm
01:39 32.7 °F /  0.4 °C 28.1 °F /  -2.2 °C 30.20in /  1022.6hPa NE 2.0mph /  3.2km/h 4.0mph /  6.4km/h 83% 0.00in /  0mm
01:44 32.8 °F /  0.4 °C 28.2 °F /  -2.1 °C 30.20in /  1022.6hPa Calm   3.0mph /  4.8km/h 83% 0.00in /  0mm
01:49 32.8 °F /  0.4 °C 28.2 °F /  -2.1 °C 30.20in /  1022.6hPa NE 2.0mph /  3.2km/h 2.0mph /  3.2km/h 83% 0.00in /  0mm
01:54 32.8 °F /  0.4 °C 28.2 °F /  -2.1 °C 30.20in /  1022.6hPa NE 1.0mph /  1.6km/h 3.0mph /  4.8km/h 83% 0.00in /  0mm
01:59 32.9 °F /  0.5 °C 28.3 °F /  -2.1 °C 30.20in /  1022.6hPa Calm   2.0mph /  3.2km/h 83% 0.00in /  0mm
02:04 33.0 °F /  0.6 °C 28.4 °F /  -2 °C 30.20in /  1022.6hPa NE 1.0mph /  1.6km/h 2.0mph /  3.2km/h 83% 0.00in /  0mm
02:09 33.1 °F /  0.6 °C 28.5 °F /  -1.9 °C 30.21in /  1022.9hPa Calm   1.0mph /  1.6km/h 83% 0.00in /  0mm
02:14 33.1 °F /  0.6 °C 28.5 °F /  -1.9 °C 30.21in /  1022.9hPa Calm     83% 0.00in /  0mm
02:19 33.2 °F /  0.7 °C 28.9 °F /  -1.7 °C 30.21in /  1022.9hPa Calm     84% 0.00in /  0mm
02:24 33.2 °F /  0.7 °C 28.9 °F /  -1.7 °C 30.21in /  1022.9hPa Calm     84% 0.00in /  0mm
02:29 33.2 °F /  0.7 °C 28.9 °F /  -1.7 °C 30.20in /  1022.6hPa Calm   2.0mph /  3.2km/h 84% 0.00in /  0mm
02:34 33.2 °F /  0.7 °C 29.2 °F /  -1.6 °C 30.20in /  1022.6hPa NE 1.0mph /  1.6km/h 2.0mph /  3.2km/h 85% 0.00in /  0mm
02:39 33.2 °F /  0.7 °C 29.2 °F /  -1.6 °C 30.20in /  1022.6hPa NE 1.0mph /  1.6km/h 2.0mph /  3.2km/h 85% 0.00in /  0mm
02:44 33.3 °F /  0.7 °C 29.6 °F /  -1.3 °C 30.20in /  1022.6hPa NE 2.0mph /  3.2km/h 2.0mph /  3.2km/h 86% 0.00in /  0mm
02:49 33.3 °F /  0.7 °C 29.6 °F /  -1.3 °C 30.19in /  1022.2hPa NE 1.0mph /  1.6km/h 3.0mph /  4.8km/h 86% 0.01in /  0.25mm
02:54 33.3 °F /  0.7 °C 29.8 °F /  -1.2 °C 30.19in /  1022.2hPa NE 1.0mph /  1.6km/h 3.0mph /  4.8km/h 87% 0.01in /  0.25mm
02:59 33.4 °F /  0.8 °C 29.9 °F /  -1.2 °C 30.19in /  1022.2hPa NE 1.0mph /  1.6km/h 5.0mph /  8km/h 87% 0.01in /  0.25mm
03:04 33.5 °F /  0.8 °C 30.0 °F /  -1.1 °C 30.18in /  1021.9hPa NE 1.0mph /  1.6km/h 5.0mph /  8km/h 87% 0.01in /  0.25mm
03:09 33.5 °F /  0.8 °C 30.3 °F /  -0.9 °C 30.18in /  1021.9hPa ENE 2.0mph /  3.2km/h 5.0mph /  8km/h 88% 0.01in /  0.25mm
03:14 33.6 °F /  0.9 °C 30.4 °F /  -0.9 °C 30.18in /  1021.9hPa ENE 2.0mph /  3.2km/h 4.0mph /  6.4km/h 88% 0.01in /  0.25mm
03:19 33.6 °F /  0.9 °C 30.4 °F /  -0.9 °C 30.17in /  1021.6hPa NNE 1.0mph /  1.6km/h 4.0mph /  6.4km/h 88% 0.01in /  0.25mm
03:24 33.6 °F /  0.9 °C 30.4 °F /  -0.9 °C 30.17in /  1021.6hPa NE 1.0mph /  1.6km/h 3.0mph /  4.8km/h 88% 0.02in /  0.51mm
03:29 33.7 °F /  0.9 °C 30.5 °F /  -0.8 °C 30.17in /  1021.6hPa NE 1.0mph /  1.6km/h 3.0mph /  4.8km/h 88% 0.02in /  0.51mm
03:34 33.9 °F /  1.1 °C 30.7 °F /  -0.7 °C 30.17in /  1021.6hPa ENE 1.0mph /  1.6km/h 3.0mph /  4.8km/h 88% 0.02in /  0.51mm
03:39 34.0 °F /  1.1 °C 30.8 °F /  -0.7 °C 30.17in /  1021.6hPa ENE 1.0mph /  1.6km/h 2.0mph /  3.2km/h 88% 0.02in /  0.51mm
03:44 34.1 °F /  1.2 °C 30.6 °F /  -0.8 °C 30.17in /  1021.6hPa East 1.0mph /  1.6km/h 3.0mph /  4.8km/h 87% 0.02in /  0.51mm
03:49 34.2 °F /  1.2 °C 30.7 °F /  -0.7 °C 30.16in /  1021.2hPa ENE 1.0mph /  1.6km/h 3.0mph /  4.8km/h 87% 0.01in /  0.25mm
03:54 34.3 °F /  1.3 °C 31.1 °F /  -0.5 °C 30.16in /  1021.2hPa Calm   5.0mph /  8km/h 88% 0.01in /  0.25mm
03:59 34.4 °F /  1.3 °C 30.9 °F /  -0.6 °C 30.15in /  1020.9hPa East 2.0mph /  3.2km/h 6.0mph /  9.7km/h 87% 0.01in /  0.25mm
04:04 34.5 °F /  1.4 °C 31.0 °F /  -0.6 °C 30.15in /  1020.9hPa East 2.0mph /  3.2km/h 6.0mph /  9.7km/h 87% 0.02in /  0.51mm
04:09 34.7 °F /  1.5 °C 31.2 °F /  -0.4 °C 30.15in /  1020.9hPa East 3.0mph /  4.8km/h 6.0mph /  9.7km/h 87% 0.02in /  0.51mm
04:14 34.7 °F /  1.5 °C 31.2 °F /  -0.4 °C 30.15in /  1020.9hPa East 1.0mph /  1.6km/h 6.0mph /  9.7km/h 87% 0.02in /  0.51mm
04:19 34.9 °F /  1.6 °C 31.4 °F /  -0.3 °C 30.15in /  1020.9hPa ENE 3.0mph /  4.8km/h 7.0mph /  11.3km/h 87% 0.02in /  0.51mm
04:24 35.0 °F /  1.7 °C 31.5 °F /  -0.3 °C 30.15in /  1020.9hPa East 2.0mph /  3.2km/h 5.0mph /  8km/h 87% 0.01in /  0.25mm
04:29 35.1 °F /  1.7 °C 31.6 °F /  -0.2 °C 30.14in /  1020.5hPa East 2.0mph /  3.2km/h 5.0mph /  8km/h 87% 0.01in /  0.25mm
04:34 35.1 °F /  1.7 °C 31.6 °F /  -0.2 °C 30.14in /  1020.5hPa ENE 2.0mph /  3.2km/h 5.0mph /  8km/h 87% 0.01in /  0.25mm
04:39 35.0 °F /  1.7 °C 31.5 °F /  -0.3 °C 30.14in /  1020.5hPa ENE 1.0mph /  1.6km/h 5.0mph /  8km/h 87% 0.01in /  0.25mm
04:44 35.0 °F /  1.7 °C 31.8 °F /  -0.1 °C 30.14in /  1020.5hPa ENE 3.0mph /  4.8km/h 4.0mph /  6.4km/h 88% 0.01in /  0.25mm
04:49 35.1 °F /  1.7 °C 31.9 °F /  -0.1 °C 30.14in /  1020.5hPa ENE 1.0mph /  1.6km/h 4.0mph /  6.4km/h 88% 0.01in /  0.25mm
04:54 35.2 °F /  1.8 °C 32.0 °F /  0 °C 30.14in /  1020.5hPa ENE 2.0mph /  3.2km/h 5.0mph /  8km/h 88% 0.01in /  0.25mm
04:59 35.2 °F /  1.8 °C 31.7 °F /  -0.2 °C 30.13in /  1020.2hPa ENE 2.0mph /  3.2km/h 5.0mph /  8km/h 87% 0.01in /  0.25mm
05:04 35.3 °F /  1.8 °C 31.8 °F /  -0.1 °C 30.13in /  1020.2hPa ENE 2.0mph /  3.2km/h 5.0mph /  8km/h 87% 0.00in /  0mm
05:09 35.4 °F /  1.9 °C 31.9 °F /  -0.1 °C 30.13in /  1020.2hPa ENE 1.0mph /  1.6km/h 5.0mph /  8km/h 87% 0.00in /  0mm
05:14 35.5 °F /  1.9 °C 32.0 °F /  0 °C 30.13in /  1020.2hPa ENE 2.0mph /  3.2km/h 7.0mph /  11.3km/h 87% 0.00in /  0mm
05:19 35.5 °F /  1.9 °C 32.0 °F /  0 °C 30.12in /  1019.9hPa ESE 3.0mph /  4.8km/h 5.0mph /  8km/h 87% 0.00in /  0mm
05:24 35.5 °F /  1.9 °C 32.0 °F /  0 °C 30.12in /  1019.9hPa NE 2.0mph /  3.2km/h 7.0mph /  11.3km/h 87% 0.00in /  0mm
05:29 35.5 °F /  1.9 °C 32.0 °F /  0 °C 30.12in /  1019.9hPa NE 3.0mph /  4.8km/h 5.0mph /  8km/h 87% 0.00in /  0mm
05:34 35.6 °F /  2 °C 32.1 °F /  0.1 °C 30.12in /  1019.9hPa ENE 4.0mph /  6.4km/h 6.0mph /  9.7km/h 87% 0.00in /  0mm
05:39 35.7 °F /  2.1 °C 32.2 °F /  0.1 °C 30.12in /  1019.9hPa NE 3.0mph /  4.8km/h 5.0mph /  8km/h 87% 0.00in /  0mm
05:44 35.8 °F /  2.1 °C 32.3 °F /  0.2 °C 30.11in /  1019.5hPa NE 3.0mph /  4.8km/h 5.0mph /  8km/h 87% 0.00in /  0mm
05:49 36.0 °F /  2.2 °C 32.5 °F /  0.3 °C 30.11in /  1019.5hPa ENE 3.0mph /  4.8km/h 8.0mph /  12.9km/h 87% 0.00in /  0mm
05:54 36.1 °F /  2.3 °C 32.6 °F /  0.3 °C 30.10in /  1019.2hPa NE 2.0mph /  3.2km/h 7.0mph /  11.3km/h 87% 0.00in /  0mm
05:59 36.1 °F /  2.3 °C 32.6 °F /  0.3 °C 30.10in /  1019.2hPa ENE 3.0mph /  4.8km/h 7.0mph /  11.3km/h 87% 0.00in /  0mm
06:04 36.2 °F /  2.3 °C 32.7 °F /  0.4 °C 30.09in /  1018.8hPa NE 7.0mph /  11.3km/h 7.0mph /  11.3km/h 87% 0.00in /  0mm
06:09 36.2 °F /  2.3 °C 32.7 °F /  0.4 °C 30.09in /  1018.8hPa ENE 4.0mph /  6.4km/h 9.0mph /  14.5km/h 87% 0.00in /  0mm
06:14 36.2 °F /  2.3 °C 32.7 °F /  0.4 °C 30.09in /  1018.8hPa SE 3.0mph /  4.8km/h 6.0mph /  9.7km/h 87% 0.01in /  0.25mm
06:19 36.1 °F /  2.3 °C 32.6 °F /  0.3 °C 30.09in /  1018.8hPa ENE 2.0mph /  3.2km/h 7.0mph /  11.3km/h 87% 0.01in /  0.25mm
06:24 36.1 °F /  2.3 °C 32.6 °F /  0.3 °C 30.08in /  1018.5hPa ENE 3.0mph /  4.8km/h 8.0mph /  12.9km/h 87% 0.01in /  0.25mm
06:29 36.1 °F /  2.3 °C 32.6 °F /  0.3 °C 30.08in /  1018.5hPa East 3.0mph /  4.8km/h 9.0mph /  14.5km/h 87% 0.01in /  0.25mm
06:34 36.1 °F /  2.3 °C 32.6 °F /  0.3 °C 30.08in /  1018.5hPa East 4.0mph /  6.4km/h 9.0mph /  14.5km/h 87% 0.01in /  0.25mm
06:39 36.1 °F /  2.3 °C 32.6 °F /  0.3 °C 30.07in /  1018.2hPa East 4.0mph /  6.4km/h 9.0mph /  14.5km/h 87% 0.01in /  0.25mm
06:44 36.1 °F /  2.3 °C 32.6 °F /  0.3 °C 30.07in /  1018.2hPa NE 2.0mph /  3.2km/h 9.0mph /  14.5km/h 87% 0.01in /  0.25mm
06:49 36.1 °F /  2.3 °C 32.6 °F /  0.3 °C 30.07in /  1018.2hPa NE 3.0mph /  4.8km/h 8.0mph /  12.9km/h 87% 0.01in /  0.25mm
06:54 36.1 °F /  2.3 °C 32.6 °F /  0.3 °C 30.07in /  1018.2hPa ENE 5.0mph /  8km/h 8.0mph /  12.9km/h 87% 0.01in /  0.25mm
06:59 36.2 °F /  2.3 °C 32.7 °F /  0.4 °C 30.06in /  1017.8hPa ENE 4.0mph /  6.4km/h 9.0mph /  14.5km/h 87% 0.01in /  0.25mm
07:04 36.2 °F /  2.3 °C 32.7 °F /  0.4 °C 30.05in /  1017.5hPa ENE 4.0mph /  6.4km/h 10.0mph /  16.1km/h 87% 0.01in /  0.25mm
07:09 36.2 °F /  2.3 °C 32.7 °F /  0.4 °C 30.05in /  1017.5hPa ENE 4.0mph /  6.4km/h 10.0mph /  16.1km/h 87% 0.01in /  0.25mm
07:14 36.2 °F /  2.3 °C 32.7 °F /  0.4 °C 30.04in /  1017.2hPa ENE 4.0mph /  6.4km/h 9.0mph /  14.5km/h 87% 0.01in /  0.25mm
07:19 36.2 °F /  2.3 °C 32.7 °F /  0.4 °C 30.04in /  1017.2hPa ENE 2.0mph /  3.2km/h 8.0mph /  12.9km/h 87% 0.01in /  0.25mm
07:24 36.2 °F /  2.3 °C 32.7 °F /  0.4 °C 30.03in /  1016.8hPa NE 4.0mph /  6.4km/h 10.0mph /  16.1km/h 87% 0.01in /  0.25mm
07:29 36.2 °F /  2.3 °C 32.7 °F /  0.4 °C 30.03in /  1016.8hPa ENE 5.0mph /  8km/h 11.0mph /  17.7km/h 87% 0.01in /  0.25mm
07:34 36.2 °F /  2.3 °C 33.0 °F /  0.6 °C 30.02in /  1016.5hPa ENE 5.0mph /  8km/h 11.0mph /  17.7km/h 88% 0.01in /  0.25mm
07:39 36.3 °F /  2.4 °C 33.1 °F /  0.6 °C 30.02in /  1016.5hPa ENE 5.0mph /  8km/h 14.0mph /  22.5km/h 88% 0.01in /  0.25mm
07:44 36.4 °F /  2.4 °C 33.2 °F /  0.7 °C 30.02in /  1016.5hPa ENE 4.0mph /  6.4km/h 12.0mph /  19.3km/h 88% 0.01in /  0.25mm
07:49 36.4 °F /  2.4 °C 33.2 °F /  0.7 °C 30.02in /  1016.5hPa ENE 3.0mph /  4.8km/h 9.0mph /  14.5km/h 88% 0.01in /  0.25mm
07:54 36.4 °F /  2.4 °C 33.2 °F /  0.7 °C 30.02in /  1016.5hPa East 7.0mph /  11.3km/h 8.0mph /  12.9km/h 88% 0.01in /  0.25mm
07:59 36.4 °F /  2.4 °C 33.2 °F /  0.7 °C 30.02in /  1016.5hPa ENE 4.0mph /  6.4km/h 10.0mph /  16.1km/h 88% 0.02in /  0.51mm
08:04 36.4 °F /  2.4 °C 33.2 °F /  0.7 °C 30.02in /  1016.5hPa ENE 4.0mph /  6.4km/h 10.0mph /  16.1km/h 88% 0.02in /  0.51mm
08:09 36.4 °F /  2.4 °C 33.2 °F /  0.7 °C 30.02in /  1016.5hPa ENE 3.0mph /  4.8km/h 9.0mph /  14.5km/h 88% 0.02in /  0.51mm
08:14 36.5 °F /  2.5 °C 33.3 °F /  0.7 °C 30.01in /  1016.1hPa East 5.0mph /  8km/h 8.0mph /  12.9km/h 88% 0.01in /  0.25mm
08:19 36.4 °F /  2.4 °C 33.2 °F /  0.7 °C 30.01in /  1016.1hPa East 7.0mph /  11.3km/h 8.0mph /  12.9km/h 88% 0.01in /  0.25mm
08:24 36.5 °F /  2.5 °C 33.3 °F /  0.7 °C 30.01in /  1016.1hPa East 2.0mph /  3.2km/h 9.0mph /  14.5km/h 88% 0.01in /  0.25mm
08:29 36.5 °F /  2.5 °C 33.6 °F /  0.9 °C 30.00in /  1015.8hPa East 5.0mph /  8km/h 11.0mph /  17.7km/h 89% 0.01in /  0.25mm
08:34 36.6 °F /  2.6 °C 33.7 °F /  0.9 °C 30.00in /  1015.8hPa East 4.0mph /  6.4km/h 11.0mph /  17.7km/h 89% 0.01in /  0.25mm
08:39 36.6 °F /  2.6 °C 33.7 °F /  0.9 °C 30.00in /  1015.8hPa East 3.0mph /  4.8km/h 9.0mph /  14.5km/h 89% 0.01in /  0.25mm
08:44 36.7 °F /  2.6 °C 33.8 °F /  1 °C 30.00in /  1015.8hPa East 3.0mph /  4.8km/h 9.0mph /  14.5km/h 89% 0.01in /  0.25mm
08:49 36.8 °F /  2.7 °C 33.9 °F /  1.1 °C 30.00in /  1015.8hPa ENE 4.0mph /  6.4km/h 9.0mph /  14.5km/h 89% 0.01in /  0.25mm
08:54 36.8 °F /  2.7 °C 33.9 °F /  1.1 °C 29.99in /  1015.5hPa ENE 4.0mph /  6.4km/h 11.0mph /  17.7km/h 89% 0.01in /  0.25mm
08:59 36.8 °F /  2.7 °C 34.1 °F /  1.2 °C 29.99in /  1015.5hPa NE 4.0mph /  6.4km/h 7.0mph /  11.3km/h 90% 0.00in /  0mm
09:04 36.8 °F /  2.7 °C 34.1 °F /  1.2 °C 29.99in /  1015.5hPa ENE 3.0mph /  4.8km/h 8.0mph /  12.9km/h 90% 0.01in /  0.25mm
09:09 36.9 °F /  2.7 °C 34.2 °F /  1.2 °C 29.98in /  1015.1hPa ENE 4.0mph /  6.4km/h 10.0mph /  16.1km/h 90% 0.01in /  0.25mm
09:14 37.0 °F /  2.8 °C 34.6 °F /  1.4 °C 29.98in /  1015.1hPa East 4.0mph /  6.4km/h 10.0mph /  16.1km/h 91% 0.01in /  0.25mm
09:19 37.1 °F /  2.8 °C 34.7 °F /  1.5 °C 29.97in /  1014.8hPa ESE 4.0mph /  6.4km/h 7.0mph /  11.3km/h 91% 0.01in /  0.25mm
09:24 37.3 °F /  2.9 °C 34.9 °F /  1.6 °C 29.97in /  1014.8hPa East 5.0mph /  8km/h 8.0mph /  12.9km/h 91% 0.02in /  0.51mm
09:29 37.5 °F /  3.1 °C 35.4 °F /  1.9 °C 29.97in /  1014.8hPa East 3.0mph /  4.8km/h 5.0mph /  8km/h 92% 0.02in /  0.51mm
09:34 37.7 °F /  3.2 °C 35.6 °F /  2 °C 29.96in /  1014.4hPa East 2.0mph /  3.2km/h 7.0mph /  11.3km/h 92% 0.02in /  0.51mm
09:39 37.8 °F /  3.2 °C 35.7 °F /  2.1 °C 29.95in /  1014.1hPa ENE 3.0mph /  4.8km/h 8.0mph /  12.9km/h 92% 0.03in /  0.76mm
09:44 37.9 °F /  3.3 °C 35.8 °F /  2.1 °C 29.94in /  1013.8hPa ENE 3.0mph /  4.8km/h 8.0mph /  12.9km/h 92% 0.05in /  1.27mm
09:49 38.0 °F /  3.3 °C 35.9 °F /  2.2 °C 29.94in /  1013.8hPa Calm   9.0mph /  14.5km/h 92% 0.06in /  1.52mm
09:54 38.2 °F /  3.4 °C 36.4 °F /  2.4 °C 29.94in /  1013.8hPa ENE 3.0mph /  4.8km/h 7.0mph /  11.3km/h 93% 0.07in /  1.78mm
09:59 38.4 °F /  3.6 °C 36.6 °F /  2.6 °C 29.93in /  1013.4hPa East 6.0mph /  9.7km/h 8.0mph /  12.9km/h 93% 0.07in /  1.78mm
10:04 38.5 °F /  3.6 °C 36.7 °F /  2.6 °C 29.93in /  1013.4hPa ESE 7.0mph /  11.3km/h 7.0mph /  11.3km/h 93% 0.08in /  2.03mm
10:09 38.7 °F /  3.7 °C 36.9 °F /  2.7 °C 29.93in /  1013.4hPa East 3.0mph /  4.8km/h 7.0mph /  11.3km/h 93% 0.08in /  2.03mm
10:14 38.8 °F /  3.8 °C 36.9 °F /  2.7 °C 29.92in /  1013.1hPa East 3.0mph /  4.8km/h 7.0mph /  11.3km/h 93% 0.10in /  2.54mm
10:19 39.0 °F /  3.9 °C 37.1 °F /  2.8 °C 29.93in /  1013.4hPa East 3.0mph /  4.8km/h 7.0mph /  11.3km/h 93% 0.11in /  2.79mm
10:24 39.1 °F /  3.9 °C 37.2 °F /  2.9 °C 29.93in /  1013.4hPa East 2.0mph /  3.2km/h 7.0mph /  11.3km/h 93% 0.12in /  3.05mm
10:29 39.3 °F /  4.1 °C 37.4 °F /  3 °C 29.93in /  1013.4hPa ENE 2.0mph /  3.2km/h 4.0mph /  6.4km/h 93% 0.15in /  3.81mm
10:34 39.3 °F /  4.1 °C 37.7 °F /  3.2 °C 29.92in /  1013.1hPa ENE 3.0mph /  4.8km/h 6.0mph /  9.7km/h 94% 0.16in /  4.06mm
10:39 39.3 °F /  4.1 °C 37.7 °F /  3.2 °C 29.92in /  1013.1hPa ENE 3.0mph /  4.8km/h 5.0mph /  8km/h 94% 0.16in /  4.06mm
10:44 39.4 °F /  4.1 °C 37.8 °F /  3.2 °C 29.91in /  1012.8hPa ENE 2.0mph /  3.2km/h 6.0mph /  9.7km/h 94% 0.16in /  4.06mm
10:49 39.5 °F /  4.2 °C 37.9 °F /  3.3 °C 29.90in /  1012.4hPa East 5.0mph /  8km/h 8.0mph /  12.9km/h 94% 0.15in /  3.81mm
10:54 39.5 °F /  4.2 °C 37.9 °F /  3.3 °C 29.89in /  1012.1hPa ESE 7.0mph /  11.3km/h 10.0mph /  16.1km/h 94% 0.16in /  4.06mm
10:59 39.7 °F /  4.3 °C 38.1 °F /  3.4 °C 29.89in /  1012.1hPa ESE 5.0mph /  8km/h 8.0mph /  12.9km/h 94% 0.16in /  4.06mm
11:04 40.2 °F /  4.6 °C 38.6 °F /  3.7 °C 29.89in /  1012.1hPa ENE 2.0mph /  3.2km/h 8.0mph /  12.9km/h 94% 0.15in /  3.81mm
11:09 40.6 °F /  4.8 °C 39.0 °F /  3.9 °C 29.89in /  1012.1hPa East 5.0mph /  8km/h 6.0mph /  9.7km/h 94% 0.15in /  3.81mm
11:14 40.9 °F /  4.9 °C 39.3 °F /  4.1 °C 29.89in /  1012.1hPa ENE 3.0mph /  4.8km/h 6.0mph /  9.7km/h 94% 0.13in /  3.3mm
11:19 41.1 °F /  5.1 °C 39.5 °F /  4.2 °C 29.88in /  1011.7hPa ENE 2.0mph /  3.2km/h 6.0mph /  9.7km/h 94% 0.12in /  3.05mm
11:24 41.3 °F /  5.2 °C 39.7 °F /  4.3 °C 29.88in /  1011.7hPa ENE 2.0mph /  3.2km/h 6.0mph /  9.7km/h 94% 0.10in /  2.54mm
11:29 41.6 °F /  5.3 °C 40.0 °F /  4.4 °C 29.88in /  1011.7hPa ENE 2.0mph /  3.2km/h 6.0mph /  9.7km/h 94% 0.07in /  1.78mm
11:34 41.7 °F /  5.4 °C 40.1 °F /  4.5 °C 29.87in /  1011.4hPa ENE 3.0mph /  4.8km/h 6.0mph /  9.7km/h 94% 0.06in /  1.52mm
11:39 41.7 °F /  5.4 °C 40.1 °F /  4.5 °C 29.87in /  1011.4hPa NE 2.0mph /  3.2km/h 4.0mph /  6.4km/h 94% 0.05in /  1.27mm
11:44 41.7 °F /  5.4 °C 40.1 °F /  4.5 °C 29.87in /  1011.4hPa ENE 3.0mph /  4.8km/h 6.0mph /  9.7km/h 94% 0.03in /  0.76mm
11:49 41.8 °F /  5.4 °C 40.2 °F /  4.6 °C 29.87in /  1011.4hPa Calm   5.0mph /  8km/h 94% 0.03in /  0.76mm
11:54 41.7 °F /  5.4 °C 40.1 °F /  4.5 °C 29.87in /  1011.4hPa ENE 2.0mph /  3.2km/h 3.0mph /  4.8km/h 94% 0.02in /  0.51mm
11:59 41.5 °F /  5.3 °C 39.6 °F /  4.2 °C 29.87in /  1011.4hPa NE 1.0mph /  1.6km/h 4.0mph /  6.4km/h 93% 0.02in /  0.51mm
12:04 41.3 °F /  5.2 °C 39.7 °F /  4.3 °C 29.86in /  1011.1hPa ENE 3.0mph /  4.8km/h 4.0mph /  6.4km/h 94% 0.01in /  0.25mm
12:09 41.4 °F /  5.2 °C 39.8 °F /  4.3 °C 29.86in /  1011.1hPa ENE 2.0mph /  3.2km/h 4.0mph /  6.4km/h 94% 0.03in /  0.76mm
12:14 41.4 °F /  5.2 °C 39.8 °F /  4.3 °C 29.86in /  1011.1hPa ENE 2.0mph /  3.2km/h 4.0mph /  6.4km/h 94% 0.03in /  0.76mm
12:19 41.4 °F /  5.2 °C 39.8 °F /  4.3 °C 29.86in /  1011.1hPa ENE 1.0mph /  1.6km/h 3.0mph /  4.8km/h 94% 0.07in /  1.78mm
12:24 41.5 °F /  5.3 °C 39.9 °F /  4.4 °C 29.86in /  1011.1hPa ENE 2.0mph /  3.2km/h 4.0mph /  6.4km/h 94% 0.11in /  2.79mm
12:29 41.5 °F /  5.3 °C 39.9 °F /  4.4 °C 29.85in /  1010.7hPa NE 2.0mph /  3.2km/h 5.0mph /  8km/h 94% 0.13in /  3.3mm
12:34 41.6 °F /  5.3 °C 40.0 °F /  4.4 °C 29.85in /  1010.7hPa NE 2.0mph /  3.2km/h 5.0mph /  8km/h 94% 0.15in /  3.81mm
12:39 41.6 °F /  5.3 °C 40.0 °F /  4.4 °C 29.85in /  1010.7hPa ENE 1.0mph /  1.6km/h 4.0mph /  6.4km/h 94% 0.17in /  4.32mm
12:44 41.7 °F /  5.4 °C 40.1 °F /  4.5 °C 29.84in /  1010.4hPa East 1.0mph /  1.6km/h 5.0mph /  8km/h 94% 0.19in /  4.83mm
12:49 41.8 °F /  5.4 °C 40.2 °F /  4.6 °C 29.84in /  1010.4hPa ENE 1.0mph /  1.6km/h 6.0mph /  9.7km/h 94% 0.20in /  5.08mm
12:54 42.1 °F /  5.6 °C 40.8 °F /  4.9 °C 29.83in /  1010hPa ESE 2.0mph /  3.2km/h 3.0mph /  4.8km/h 95% 0.19in /  4.83mm
12:59 42.5 °F /  5.8 °C 41.2 °F /  5.1 °C 29.83in /  1010hPa ENE 3.0mph /  4.8km/h 5.0mph /  8km/h 95% 0.19in /  4.83mm
13:04 42.6 °F /  5.9 °C 41.3 °F /  5.2 °C 29.83in /  1010hPa ENE 2.0mph /  3.2km/h 5.0mph /  8km/h 95% 0.19in /  4.83mm
13:09 42.7 °F /  5.9 °C 41.4 °F /  5.2 °C 29.82in /  1009.7hPa NE 2.0mph /  3.2km/h 3.0mph /  4.8km/h 95% 0.17in /  4.32mm
13:14 42.8 °F /  6 °C 41.5 °F /  5.3 °C 29.82in /  1009.7hPa Calm   3.0mph /  4.8km/h 95% 0.18in /  4.57mm
13:19 43.1 °F /  6.2 °C 41.8 °F /  5.4 °C 29.82in /  1009.7hPa NE 2.0mph /  3.2km/h 3.0mph /  4.8km/h 95% 0.15in /  3.81mm
13:24 43.3 °F /  6.3 °C 42.0 °F /  5.6 °C 29.81in /  1009.4hPa ENE 1.0mph /  1.6km/h 3.0mph /  4.8km/h 95% 0.13in /  3.3mm
13:29 43.6 °F /  6.4 °C 42.3 °F /  5.7 °C 29.81in /  1009.4hPa ENE 1.0mph /  1.6km/h 3.0mph /  4.8km/h 95% 0.12in /  3.05mm
13:34 43.7 °F /  6.5 °C 42.4 °F /  5.8 °C 29.80in /  1009hPa Calm   2.0mph /  3.2km/h 95% 0.11in /  2.79mm
13:39 43.9 °F /  6.6 °C 42.6 °F /  5.9 °C 29.80in /  1009hPa Calm   2.0mph /  3.2km/h 95% 0.09in /  2.29mm
13:44 44.3 °F /  6.8 °C 43.0 °F /  6.1 °C 29.80in /  1009hPa Calm     95% 0.07in /  1.78mm
13:49 44.5 °F /  6.9 °C 43.2 °F /  6.2 °C 29.80in /  1009hPa Calm     95% 0.06in /  1.52mm
13:54 44.8 °F /  7.1 °C 43.5 °F /  6.4 °C 29.79in /  1008.7hPa Calm     95% 0.07in /  1.78mm
13:59 44.9 °F /  7.2 °C 43.6 °F /  6.4 °C 29.79in /  1008.7hPa Calm     95% 0.07in /  1.78mm
14:04 45.0 °F /  7.2 °C 43.7 °F /  6.5 °C 29.79in /  1008.7hPa Calm     95% 0.08in /  2.03mm
14:09 45.1 °F /  7.3 °C 43.8 °F /  6.6 °C 29.79in /  1008.7hPa Calm     95% 0.09in /  2.29mm
14:14 45.2 °F /  7.3 °C 43.9 °F /  6.6 °C 29.79in /  1008.7hPa Calm     95% 0.09in /  2.29mm
14:19 45.2 °F /  7.3 °C 43.9 °F /  6.6 °C 29.78in /  1008.4hPa Calm     95% 0.09in /  2.29mm
14:24 45.3 °F /  7.4 °C 44.0 °F /  6.7 °C 29.78in /  1008.4hPa Calm     95% 0.08in /  2.03mm
14:29 45.5 °F /  7.5 °C 44.2 °F /  6.8 °C 29.78in /  1008.4hPa Calm     95% 0.07in /  1.78mm
14:34 45.5 °F /  7.5 °C 44.2 °F /  6.8 °C 29.78in /  1008.4hPa Calm     95% 0.07in /  1.78mm
14:39 45.3 °F /  7.4 °C 44.0 °F /  6.7 °C 29.77in /  1008hPa Calm     95% 0.07in /  1.78mm
14:44 45.4 °F /  7.4 °C 44.1 °F /  6.7 °C 29.77in /  1008hPa Calm     95% 0.07in /  1.78mm
14:49 45.4 °F /  7.4 °C 44.1 °F /  6.7 °C 29.77in /  1008hPa NE 3.0mph /  4.8km/h 6.0mph /  9.7km/h 95% 0.08in /  2.03mm
14:54 45.5 °F /  7.5 °C 44.2 °F /  6.8 °C 29.77in /  1008hPa ENE 2.0mph /  3.2km/h 6.0mph /  9.7km/h 95% 0.08in /  2.03mm
14:59 45.5 °F /  7.5 °C 44.2 °F /  6.8 °C 29.77in /  1008hPa NE 2.0mph /  3.2km/h 3.0mph /  4.8km/h 95% 0.08in /  2.03mm
15:04 45.6 °F /  7.6 °C 44.3 °F /  6.8 °C 29.78in /  1008.4hPa NE 1.0mph /  1.6km/h 3.0mph /  4.8km/h 95% 0.07in /  1.78mm
15:09 45.4 °F /  7.4 °C 44.1 °F /  6.7 °C 29.78in /  1008.4hPa NE 2.0mph /  3.2km/h 2.0mph /  3.2km/h 95% 0.06in /  1.52mm
15:14 44.8 °F /  7.1 °C 43.5 °F /  6.4 °C 29.78in /  1008.4hPa NE 2.0mph /  3.2km/h 2.0mph /  3.2km/h 95% 0.05in /  1.27mm
15:19 44.5 °F /  6.9 °C 43.2 °F /  6.2 °C 29.78in /  1008.4hPa NE 1.0mph /  1.6km/h 3.0mph /  4.8km/h 95% 0.04in /  1.02mm
15:24 44.3 °F /  6.8 °C 43.0 °F /  6.1 °C 29.78in /  1008.4hPa NE 1.0mph /  1.6km/h 3.0mph /  4.8km/h 95% 0.03in /  0.76mm
15:29 43.5 °F /  6.4 °C 42.2 °F /  5.7 °C 29.78in /  1008.4hPa Calm   2.0mph /  3.2km/h 95% 0.03in /  0.76mm
15:34 43.1 °F /  6.2 °C 41.8 °F /  5.4 °C 29.78in /  1008.4hPa North 1.0mph /  1.6km/h 4.0mph /  6.4km/h 95% 0.02in /  0.51mm
15:39 42.6 °F /  5.9 °C 41.0 °F /  5 °C 29.78in /  1008.4hPa North 2.0mph /  3.2km/h 7.0mph /  11.3km/h 94% 0.02in /  0.51mm
15:44 42.2 °F /  5.7 °C 40.9 °F /  4.9 °C 29.78in /  1008.4hPa NNW 3.0mph /  4.8km/h 10.0mph /  16.1km/h 95% 0.02in /  0.51mm
15:49 42.2 °F /  5.7 °C 40.9 °F /  4.9 °C 29.78in /  1008.4hPa North 1.0mph /  1.6km/h 3.0mph /  4.8km/h 95% 0.01in /  0.25mm
15:54 42.2 °F /  5.7 °C 40.9 °F /  4.9 °C 29.78in /  1008.4hPa Calm   2.0mph /  3.2km/h 95% 0.00in /  0mm
15:59 42.3 °F /  5.7 °C 41.0 °F /  5 °C 29.78in /  1008.4hPa Calm   2.0mph /  3.2km/h 95% 0.00in /  0mm
16:04 42.3 °F /  5.7 °C 41.0 °F /  5 °C 29.78in /  1008.4hPa Calm     95% 0.00in /  0mm
16:09 42.2 °F /  5.7 °C 40.9 °F /  4.9 °C 29.78in /  1008.4hPa Calm     95% 0.00in /  0mm
16:14 42.1 °F /  5.6 °C 40.8 °F /  4.9 °C 29.78in /  1008.4hPa Calm     95% 0.00in /  0mm
16:19 42.1 °F /  5.6 °C 40.8 °F /  4.9 °C 29.78in /  1008.4hPa Calm   2.0mph /  3.2km/h 95% 0.00in /  0mm
16:24 42.1 °F /  5.6 °C 40.8 °F /  4.9 °C 29.78in /  1008.4hPa Calm     95% 0.00in /  0mm
16:29 42.0 °F /  5.6 °C 40.7 °F /  4.8 °C 29.78in /  1008.4hPa Calm     95% 0.00in /  0mm
16:34 41.8 °F /  5.4 °C 40.5 °F /  4.7 °C 29.78in /  1008.4hPa Calm     95% 0.00in /  0mm
16:39 41.6 °F /  5.3 °C 40.3 °F /  4.6 °C 29.79in /  1008.7hPa Calm     95% 0.00in /  0mm
16:44 41.4 °F /  5.2 °C 40.1 °F /  4.5 °C 29.79in /  1008.7hPa Calm     95% 0.00in /  0mm
16:49 41.4 °F /  5.2 °C 40.1 °F /  4.5 °C 29.79in /  1008.7hPa Calm     95% 0.00in /  0mm
16:54 41.3 °F /  5.2 °C 40.0 °F /  4.4 °C 29.79in /  1008.7hPa Calm     95% 0.00in /  0mm
16:59 41.3 °F /  5.2 °C 40.0 °F /  4.4 °C 29.79in /  1008.7hPa Calm     95% 0.00in /  0mm
17:04 41.3 °F /  5.2 °C 40.0 °F /  4.4 °C 29.79in /  1008.7hPa Calm     95% 0.01in /  0.25mm
17:09 41.4 °F /  5.2 °C 40.1 °F /  4.5 °C 29.79in /  1008.7hPa Calm     95% 0.01in /  0.25mm
17:14 41.5 °F /  5.3 °C 40.2 °F /  4.6 °C 29.80in /  1009hPa Calm     95% 0.01in /  0.25mm
17:19 41.5 °F /  5.3 °C 40.2 °F /  4.6 °C 29.80in /  1009hPa Calm     95% 0.01in /  0.25mm
17:24 42.0 °F /  5.6 °C 40.7 °F /  4.8 °C 29.80in /  1009hPa SW 1.0mph /  1.6km/h 3.0mph /  4.8km/h 95% 0.01in /  0.25mm
17:29 43.1 °F /  6.2 °C 42.0 °F /  5.6 °C 29.80in /  1009hPa SSW 2.0mph /  3.2km/h 4.0mph /  6.4km/h 96% 0.01in /  0.25mm
17:34 44.1 °F /  6.7 °C 43.0 °F /  6.1 °C 29.80in /  1009hPa SW 2.0mph /  3.2km/h 6.0mph /  9.7km/h 96% 0.01in /  0.25mm
17:39 44.8 °F /  7.1 °C 43.7 °F /  6.5 °C 29.80in /  1009hPa South 5.0mph /  8km/h 6.0mph /  9.7km/h 96% 0.01in /  0.25mm
17:44 44.9 °F /  7.2 °C 43.8 °F /  6.6 °C 29.80in /  1009hPa SW 4.0mph /  6.4km/h 6.0mph /  9.7km/h 96% 0.01in /  0.25mm
17:49 44.9 °F /  7.2 °C 43.8 °F /  6.6 °C 29.80in /  1009hPa WSW 5.0mph /  8km/h 8.0mph /  12.9km/h 96% 0.01in /  0.25mm
17:54 44.9 °F /  7.2 °C 43.8 °F /  6.6 °C 29.80in /  1009hPa SW 8.0mph /  12.9km/h 8.0mph /  12.9km/h 96% 0.01in /  0.25mm
17:59 44.8 °F /  7.1 °C 43.7 °F /  6.5 °C 29.80in /  1009hPa SW 5.0mph /  8km/h 8.0mph /  12.9km/h 96% 0.01in /  0.25mm
18:04 44.8 °F /  7.1 °C 43.7 °F /  6.5 °C 29.80in /  1009hPa SW 4.0mph /  6.4km/h 8.0mph /  12.9km/h 96% 0.00in /  0mm
18:09 44.7 °F /  7.1 °C 43.6 °F /  6.4 °C 29.80in /  1009hPa SW 4.0mph /  6.4km/h 7.0mph /  11.3km/h 96% 0.00in /  0mm
18:14 44.7 °F /  7.1 °C 43.6 °F /  6.4 °C 29.80in /  1009hPa SW 4.0mph /  6.4km/h 9.0mph /  14.5km/h 96% 0.00in /  0mm
18:19 44.7 °F /  7.1 °C 43.6 °F /  6.4 °C 29.80in /  1009hPa SW 5.0mph /  8km/h 9.0mph /  14.5km/h 96% 0.00in /  0mm
18:24 44.7 °F /  7.1 °C 43.6 °F /  6.4 °C 29.80in /  1009hPa WSW 4.0mph /  6.4km/h 9.0mph /  14.5km/h 96% 0.00in /  0mm
18:29 44.9 °F /  7.2 °C 43.8 °F /  6.6 °C 29.80in /  1009hPa SW 5.0mph /  8km/h 10.0mph /  16.1km/h 96% 0.00in /  0mm
18:34 44.9 °F /  7.2 °C 43.8 °F /  6.6 °C 29.81in /  1009.4hPa SW 5.0mph /  8km/h 11.0mph /  17.7km/h 96% 0.00in /  0mm
18:39 45.1 °F /  7.3 °C 44.0 °F /  6.7 °C 29.81in /  1009.4hPa SW 4.0mph /  6.4km/h 11.0mph /  17.7km/h 96% 0.00in /  0mm
18:44 45.0 °F /  7.2 °C 43.9 °F /  6.6 °C 29.81in /  1009.4hPa SSW 7.0mph /  11.3km/h 14.0mph /  22.5km/h 96% 0.00in /  0mm
18:49 45.1 °F /  7.3 °C 44.0 °F /  6.7 °C 29.81in /  1009.4hPa SSW 5.0mph /  8km/h 15.0mph /  24.1km/h 96% 0.00in /  0mm
18:54 45.0 °F /  7.2 °C 43.9 °F /  6.6 °C 29.81in /  1009.4hPa SW 5.0mph /  8km/h 10.0mph /  16.1km/h 96% 0.00in /  0mm
18:59 44.8 °F /  7.1 °C 43.5 °F /  6.4 °C 29.81in /  1009.4hPa SSW 4.0mph /  6.4km/h 10.0mph /  16.1km/h 95% 0.00in /  0mm
19:04 44.7 °F /  7.1 °C 43.6 °F /  6.4 °C 29.81in /  1009.4hPa SW 5.0mph /  8km/h 11.0mph /  17.7km/h 96% 0.00in /  0mm
19:09 44.5 °F /  6.9 °C 43.4 °F /  6.3 °C 29.81in /  1009.4hPa SW 6.0mph /  9.7km/h 15.0mph /  24.1km/h 96% 0.00in /  0mm
19:14 44.3 °F /  6.8 °C 43.0 °F /  6.1 °C 29.81in /  1009.4hPa SW 8.0mph /  12.9km/h 17.0mph /  27.4km/h 95% 0.00in /  0mm
19:19 44.3 °F /  6.8 °C 43.0 °F /  6.1 °C 29.82in /  1009.7hPa SW 7.0mph /  11.3km/h 17.0mph /  27.4km/h 95% 0.00in /  0mm
19:24 44.3 °F /  6.8 °C 43.0 °F /  6.1 °C 29.81in /  1009.4hPa SW 7.0mph /  11.3km/h 17.0mph /  27.4km/h 95% 0.00in /  0mm
19:29 44.2 °F /  6.8 °C 42.9 °F /  6.1 °C 29.82in /  1009.7hPa SW 8.0mph /  12.9km/h 17.0mph /  27.4km/h 95% 0.00in /  0mm
19:34 44.0 °F /  6.7 °C 42.9 °F /  6.1 °C 29.82in /  1009.7hPa SW 6.0mph /  9.7km/h 12.0mph /  19.3km/h 96% 0.00in /  0mm
19:39 43.9 °F /  6.6 °C 42.8 °F /  6 °C 29.82in /  1009.7hPa SSW 5.0mph /  8km/h 16.0mph /  25.7km/h 96% 0.00in /  0mm
19:44 43.8 °F /  6.6 °C 42.7 °F /  5.9 °C 29.82in /  1009.7hPa West 4.0mph /  6.4km/h 14.0mph /  22.5km/h 96% 0.00in /  0mm
19:49 43.7 °F /  6.5 °C 42.4 °F /  5.8 °C 29.82in /  1009.7hPa SW 8.0mph /  12.9km/h 13.0mph /  20.9km/h 95% 0.00in /  0mm
19:54 43.6 °F /  6.4 °C 42.3 °F /  5.7 °C 29.82in /  1009.7hPa South 8.0mph /  12.9km/h 13.0mph /  20.9km/h 95% 0.00in /  0mm
19:59 43.4 °F /  6.3 °C 42.1 °F /  5.6 °C 29.82in /  1009.7hPa WSW 8.0mph /  12.9km/h 11.0mph /  17.7km/h 95% 0.00in /  0mm
20:04 43.1 °F /  6.2 °C 41.8 °F /  5.4 °C 29.82in /  1009.7hPa SW 10.0mph /  16.1km/h 17.0mph /  27.4km/h 95% 0.00in /  0mm
20:09 43.0 °F /  6.1 °C 41.7 °F /  5.4 °C 29.82in /  1009.7hPa SW 8.0mph /  12.9km/h 17.0mph /  27.4km/h 95% 0.00in /  0mm
20:14 42.8 °F /  6 °C 41.5 °F /  5.3 °C 29.82in /  1009.7hPa SW 8.0mph /  12.9km/h 17.0mph /  27.4km/h 95% 0.00in /  0mm
20:19 42.8 °F /  6 °C 41.5 °F /  5.3 °C 29.82in /  1009.7hPa SW 9.0mph /  14.5km/h 19.0mph /  30.6km/h 95% 0.00in /  0mm
20:24 42.7 °F /  5.9 °C 41.6 °F /  5.3 °C 29.82in /  1009.7hPa SW 8.0mph /  12.9km/h 19.0mph /  30.6km/h 96% 0.00in /  0mm
20:29 42.7 °F /  5.9 °C 41.6 °F /  5.3 °C 29.82in /  1009.7hPa WSW 13.0mph /  20.9km/h 16.0mph /  25.7km/h 96% 0.00in /  0mm
20:34 42.6 °F /  5.9 °C 41.5 °F /  5.3 °C 29.82in /  1009.7hPa SW 5.0mph /  8km/h 20.0mph /  32.2km/h 96% 0.00in /  0mm
20:39 42.5 °F /  5.8 °C 41.4 °F /  5.2 °C 29.82in /  1009.7hPa SW 8.0mph /  12.9km/h 20.0mph /  32.2km/h 96% 0.00in /  0mm
20:44 42.4 °F /  5.8 °C 41.1 °F /  5.1 °C 29.82in /  1009.7hPa SW 8.0mph /  12.9km/h 14.0mph /  22.5km/h 95% 0.00in /  0mm
20:49 42.2 °F /  5.7 °C 40.9 °F /  4.9 °C 29.82in /  1009.7hPa WSW 8.0mph /  12.9km/h 15.0mph /  24.1km/h 95% 0.00in /  0mm
20:54 42.0 °F /  5.6 °C 40.7 °F /  4.8 °C 29.82in /  1009.7hPa SW 7.0mph /  11.3km/h 15.0mph /  24.1km/h 95% 0.00in /  0mm
20:59 41.8 °F /  5.4 °C 40.5 °F /  4.7 °C 29.82in /  1009.7hPa West 8.0mph /  12.9km/h 13.0mph /  20.9km/h 95% 0.00in /  0mm
21:04 41.6 °F /  5.3 °C 40.3 °F /  4.6 °C 29.82in /  1009.7hPa SW 8.0mph /  12.9km/h 12.0mph /  19.3km/h 95% 0.00in /  0mm
21:09 41.4 °F /  5.2 °C 40.1 °F /  4.5 °C 29.82in /  1009.7hPa SW 11.0mph /  17.7km/h 12.0mph /  19.3km/h 95% 0.00in /  0mm
21:14 41.2 °F /  5.1 °C 39.9 °F /  4.4 °C 29.82in /  1009.7hPa SW 7.0mph /  11.3km/h 15.0mph /  24.1km/h 95% 0.00in /  0mm
21:19 40.9 °F /  4.9 °C 39.6 °F /  4.2 °C 29.82in /  1009.7hPa SW 7.0mph /  11.3km/h 15.0mph /  24.1km/h 95% 0.00in /  0mm
21:24 40.7 °F /  4.8 °C 39.4 °F /  4.1 °C 29.82in /  1009.7hPa WSW 7.0mph /  11.3km/h 11.0mph /  17.7km/h 95% 0.00in /  0mm
21:29 40.6 °F /  4.8 °C 39.3 °F /  4.1 °C 29.82in /  1009.7hPa WSW 7.0mph /  11.3km/h 14.0mph /  22.5km/h 95% 0.01in /  0.25mm
21:34 40.4 °F /  4.7 °C 39.1 °F /  3.9 °C 29.82in /  1009.7hPa SW 7.0mph /  11.3km/h 13.0mph /  20.9km/h 95% 0.01in /  0.25mm
21:39 40.3 °F /  4.6 °C 39.0 °F /  3.9 °C 29.82in /  1009.7hPa SW 6.0mph /  9.7km/h 13.0mph /  20.9km/h 95% 0.01in /  0.25mm
21:44 40.2 °F /  4.6 °C 38.9 °F /  3.8 °C 29.82in /  1009.7hPa SW 6.0mph /  9.7km/h 11.0mph /  17.7km/h 95% 0.01in /  0.25mm
21:49 40.2 °F /  4.6 °C 38.9 °F /  3.8 °C 29.82in /  1009.7hPa SW 6.0mph /  9.7km/h 14.0mph /  22.5km/h 95% 0.01in /  0.25mm
21:54 40.1 °F /  4.5 °C 38.8 °F /  3.8 °C 29.82in /  1009.7hPa WSW 7.0mph /  11.3km/h 14.0mph /  22.5km/h 95% 0.01in /  0.25mm
21:59 39.9 °F /  4.4 °C 38.6 °F /  3.7 °C 29.82in /  1009.7hPa WSW 7.0mph /  11.3km/h 14.0mph /  22.5km/h 95% 0.01in /  0.25mm
22:04 39.8 °F /  4.3 °C 38.5 °F /  3.6 °C 29.82in /  1009.7hPa WSW 7.0mph /  11.3km/h 13.0mph /  20.9km/h 95% 0.01in /  0.25mm
22:09 39.7 °F /  4.3 °C 38.4 °F /  3.6 °C 29.82in /  1009.7hPa WSW 4.0mph /  6.4km/h 14.0mph /  22.5km/h 95% 0.01in /  0.25mm
22:14 39.5 °F /  4.2 °C 38.2 °F /  3.4 °C 29.82in /  1009.7hPa SW 7.0mph /  11.3km/h 14.0mph /  22.5km/h 95% 0.01in /  0.25mm
22:19 39.3 °F /  4.1 °C 38.0 °F /  3.3 °C 29.82in /  1009.7hPa SW 7.0mph /  11.3km/h 16.0mph /  25.7km/h 95% 0.01in /  0.25mm
22:24 39.2 °F /  4 °C 37.9 °F /  3.3 °C 29.83in /  1010hPa WSW 7.0mph /  11.3km/h 16.0mph /  25.7km/h 95% 0.01in /  0.25mm
22:29 39.1 °F /  3.9 °C 37.8 °F /  3.2 °C 29.83in /  1010hPa West 3.0mph /  4.8km/h 14.0mph /  22.5km/h 95% 0.00in /  0mm
22:34 38.9 °F /  3.8 °C 37.6 °F /  3.1 °C 29.83in /  1010hPa WSW 5.0mph /  8km/h 14.0mph /  22.5km/h 95% 0.00in /  0mm
22:39 38.8 °F /  3.8 °C 37.5 °F /  3.1 °C 29.83in /  1010hPa SW 9.0mph /  14.5km/h 13.0mph /  20.9km/h 95% 0.00in /  0mm
22:44 38.7 °F /  3.7 °C 37.4 °F /  3 °C 29.83in /  1010hPa WSW 4.0mph /  6.4km/h 13.0mph /  20.9km/h 95% 0.00in /  0mm
22:49 38.6 °F /  3.7 °C 37.3 °F /  2.9 °C 29.83in /  1010hPa WSW 7.0mph /  11.3km/h 13.0mph /  20.9km/h 95% 0.00in /  0mm
22:54 38.4 °F /  3.6 °C 37.1 °F /  2.8 °C 29.83in /  1010hPa WSW 7.0mph /  11.3km/h 13.0mph /  20.9km/h 95% 0.00in /  0mm
22:59 38.4 °F /  3.6 °C 37.1 °F /  2.8 °C 29.83in /  1010hPa WSW 6.0mph /  9.7km/h 13.0mph /  20.9km/h 95% 0.00in /  0mm
23:04 38.3 °F /  3.5 °C 37.0 °F /  2.8 °C 29.83in /  1010hPa WSW 6.0mph /  9.7km/h 13.0mph /  20.9km/h 95% 0.00in /  0mm
23:09 38.3 °F /  3.5 °C 37.0 °F /  2.8 °C 29.83in /  1010hPa SW 6.0mph /  9.7km/h 17.0mph /  27.4km/h 95% 0.00in /  0mm
23:14 38.3 °F /  3.5 °C 37.0 °F /  2.8 °C 29.83in /  1010hPa SW 4.0mph /  6.4km/h 12.0mph /  19.3km/h 95% 0.00in /  0mm
23:19 38.2 °F /  3.4 °C 36.9 °F /  2.7 °C 29.83in /  1010hPa WSW 6.0mph /  9.7km/h 15.0mph /  24.1km/h 95% 0.00in /  0mm
23:24 38.2 °F /  3.4 °C 36.9 °F /  2.7 °C 29.83in /  1010hPa WSW 6.0mph /  9.7km/h 15.0mph /  24.1km/h 95% 0.00in /  0mm
23:29 38.2 °F /  3.4 °C 36.9 °F /  2.7 °C 29.83in /  1010hPa WSW 6.0mph /  9.7km/h 11.0mph /  17.7km/h 95% 0.01in /  0.25mm
23:34 38.2 °F /  3.4 °C 36.9 °F /  2.7 °C 29.83in /  1010hPa WSW 6.0mph /  9.7km/h 11.0mph /  17.7km/h 95% 0.01in /  0.25mm
23:39 38.2 °F /  3.4 °C 36.9 °F /  2.7 °C 29.83in /  1010hPa WSW 11.0mph /  17.7km/h 13.0mph /  20.9km/h 95% 0.01in /  0.25mm
23:44 38.2 °F /  3.4 °C 36.9 °F /  2.7 °C 29.83in /  1010hPa SW 5.0mph /  8km/h 11.0mph /  17.7km/h 95% 0.01in /  0.25mm
23:49 38.1 °F /  3.4 °C 36.8 °F /  2.7 °C 29.83in /  1010hPa SW 6.0mph /  9.7km/h 13.0mph /  20.9km/h 95% 0.01in /  0.25mm
23:54 38.1 °F /  3.4 °C 36.8 °F /  2.7 °C 29.83in /  1010hPa SSW 5.0mph /  8km/h 14.0mph /  22.5km/h 95% 0.01in /  0.25mm
23:59 38.0 °F /  3.3 °C 37.0 °F /  2.8 °C 29.83in /  1010hPa South 5.0mph /  8km/h 11.0mph /  17.7km/h 96% 0.01in /  0.25mm
Buffalo, New York, USA
Compliments of Weather Underground - 2.5 mb